Terminal Aerodrome Forecast
Issued by NWS

Home | Current Version | Previous Version | Graphics & Text | Print | Product List | Glossary On
Versions: 1 2 3 4 5 6 7 8 9 10 11 12 13 14 15 16 17
000
FTUS43 KICT 270101 AAA
TAFSLN
TAF AMD
KSLN 270101Z 2701/2724 34012KT 4SM BR VCSH OVC008
      TEMPO 2701/2703 2SM -FZDZSN BR OVC004
     FM270300 33012KT 2SM -SN BR OVC008
     FM270600 33012KT P6SM OVC015
     FM271600 31010KT P6SM SCT025
     FM271900 30010KT P6SM SKC=

USA.gov is the U.S. government's official web portal to all federal, state and local government web resources and services.